Time;durP1;ratioP1;P1;durP2;ratioP2;P2;SDS_P1;SDS_P2;PMS_P1;PMS_P2;Temp;Humidity;BMP_temperature;BMP_pressure;BME280_temperature;BME280_humidity;BME280_pressure;Samples;Min_cycle;Max_cycle;Signal;HPM_P1;HPM_P2
2023/01/07 06:25:51;;;;;;;5.35;2.70;;;;;;;;;;5069546;28;20441;-63
2023/01/07 06:28:17;;;;;;;13.10;2.67;;;;;;;;;;5068794;28;20576;-61
2023/01/07 06:30:46;;;;;;;18.40;2.70;;;;;;;;;;5069258;28;20056;-62
2023/01/07 06:33:12;;;;;;;7.50;2.60;;;;;;;;;;5069086;28;20112;-63
2023/01/07 06:35:39;;;;;;;14.95;2.70;;;;;;;;;;5069241;28;20070;-63
2023/01/07 06:38:05;;;;;;;30.23;3.25;;;;;;;;;;5067422;28;20446;-66
2023/01/07 06:40:31;;;;;;;27.90;3.00;;;;;;;;;;5069114;28;20410;-63
2023/01/07 06:42:57;;;;;;;26.02;7.22;;;;;;;;;;5068922;28;20029;-62
2023/01/07 06:45:23;;;;;;;25.88;7.10;;;;;;;;;;5068881;28;20112;-64
2023/01/07 06:47:49;;;;;;;385.42;202.95;;;;;;;;;;5068772;28;20557;-62
2023/01/07 06:50:15;;;;;;;133.98;59.30;;;;;;;;;;5068106;28;20126;-63
2023/01/07 06:52:41;;;;;;;94.45;44.13;;;;;;;;;;5067372;28;20640;-63
2023/01/07 06:55:07;;;;;;;90.47;39.38;;;;;;;;;;5068835;28;20033;-63
2023/01/07 06:57:33;;;;;;;68.97;30.60;;;;;;;;;;5068708;28;20386;-63
2023/01/07 06:59:59;;;;;;;78.32;32.95;;;;;;;;;;5067830;28;20028;-62
2023/01/07 07:02:26;;;;;;;65.35;28.80;;;;;;;;;;5068505;28;20020;-62
2023/01/07 07:04:53;;;;;;;77.40;28.55;;;;;;;;;;5068479;28;20382;-63
2023/01/07 07:07:19;;;;;;;67.72;25.90;;;;;;;;;;5068608;28;20029;-62
2023/01/07 07:09:45;;;;;;;51.25;21.80;;;;;;;;;;5068173;28;20029;-61
2023/01/07 07:12:12;;;;;;;56.75;20.75;;;;;;;;;;5068405;28;20021;-62
2023/01/07 07:14:38;;;;;;;51.05;20.33;;;;;;;;;;5063635;28;20037;-62
2023/01/07 07:17:05;;;;;;;53.22;18.05;;;;;;;;;;5067006;28;20032;-61
2023/01/07 07:19:31;;;;;;;44.42;17.75;;;;;;;;;;5066601;28;20364;-62
2023/01/07 07:21:57;;;;;;;51.35;17.65;;;;;;;;;;5068099;28;20082;-60
2023/01/07 07:24:23;;;;;;;43.40;16.42;;;;;;;;;;5059583;28;20021;-69
2023/01/07 07:26:49;;;;;;;56.45;17.38;;;;;;;;;;5067378;28;20091;-63
2023/01/07 07:29:15;;;;;;;48.15;17.77;;;;;;;;;;5066927;28;20035;-63
2023/01/07 07:31:41;;;;;;;41.45;16.17;;;;;;;;;;5067731;28;20033;-62
2023/01/07 07:34:08;;;;;;;56.88;16.20;;;;;;;;;;5067770;28;20032;-62
2023/01/07 07:36:34;;;;;;;55.25;15.63;;;;;;;;;;5058160;28;20028;-62
2023/01/07 07:39:00;;;;;;;51.08;15.40;;;;;;;;;;5054093;28;20029;-62
2023/01/07 07:41:26;;;;;;;43.78;15.57;;;;;;;;;;5054645;28;20029;-62
2023/01/07 07:43:52;;;;;;;39.17;14.68;;;;;;;;;;5054378;28;20035;-63
2023/01/07 07:46:18;;;;;;;43.67;15.85;;;;;;;;;;5054672;28;20036;-62
2023/01/07 07:48:46;;;;;;;40.45;14.80;;;;;;;;;;5054153;28;20025;-62
2023/01/07 07:51:12;;;;;;;40.17;14.73;;;;;;;;;;5054338;28;20447;-63
2023/01/07 07:53:38;;;;;;;36.55;14.10;;;;;;;;;;5054227;28;20049;-62
2023/01/07 07:56:06;;;;;;;47.85;14.70;;;;;;;;;;5054238;28;20100;-62
2023/01/07 07:58:32;;;;;;;37.38;13.10;;;;;;;;;;5053961;28;20071;-62
2023/01/07 08:00:58;;;;;;;32.33;13.73;;;;;;;;;;5054364;28;20049;-62
2023/01/07 08:03:24;;;;;;;45.05;13.75;;;;;;;;;;5054179;28;20509;-61
2023/01/07 08:05:50;;;;;;;44.90;13.23;;;;;;;;;;5054202;28;20068;-63
2023/01/07 08:08:16;;;;;;;50.45;12.85;;;;;;;;;;5053729;28;20033;-62
2023/01/07 08:10:42;;;;;;;30.17;13.27;;;;;;;;;;5053920;28;20024;-62
2023/01/07 08:13:09;;;;;;;62.50;15.05;;;;;;;;;;5053854;28;20060;-62
2023/01/07 08:15:35;;;;;;;49.90;13.38;;;;;;;;;;5055587;28;20024;-67
2023/01/07 08:18:02;;;;;;;32.45;12.82;;;;;;;;;;5055113;28;20495;-63
2023/01/07 08:20:28;;;;;;;56.65;13.90;;;;;;;;;;5061663;28;20412;-60
2023/01/07 08:22:54;;;;;;;46.95;12.48;;;;;;;;;;5053743;28;20021;-61
2023/01/07 08:25:20;;;;;;;44.08;12.45;;;;;;;;;;5053273;28;20029;-62
2023/01/07 08:27:46;;;;;;;51.83;12.90;;;;;;;;;;5053673;28;20025;-60
2023/01/07 08:30:12;;;;;;;30.92;11.63;;;;;;;;;;5053531;28;20112;-60
2023/01/07 08:32:38;;;;;;;36.50;13.10;;;;;;;;;;5060392;28;20024;-62
2023/01/07 08:35:04;;;;;;;40.33;11.07;;;;;;;;;;5061004;28;20071;-62
2023/01/07 08:37:30;;;;;;;42.60;10.20;;;;;;;;;;5053377;28;20036;-61
2023/01/07 08:39:56;;;;;;;40.10;11.45;;;;;;;;;;5053102;28;20542;-61
2023/01/07 08:42:22;;;;;;;35.47;11.52;;;;;;;;;;5053340;28;20032;-61
2023/01/07 08:44:49;;;;;;;34.15;10.90;;;;;;;;;;5060695;28;20390;-62
2023/01/07 08:47:15;;;;;;;34.10;12.07;;;;;;;;;;5052439;28;20032;-61
2023/01/07 08:49:41;;;;;;;33.78;10.43;;;;;;;;;;5052882;28;20031;-61
2023/01/07 08:52:07;;;;;;;34.92;10.52;;;;;;;;;;5053198;28;20025;-61
2023/01/07 08:54:33;;;;;;;44.33;11.73;;;;;;;;;;5053109;28;20075;-62
2023/01/07 08:56:59;;;;;;;26.35;9.55;;;;;;;;;;5053413;28;20029;-62
2023/01/07 08:59:25;;;;;;;30.02;10.73;;;;;;;;;;5072282;28;20027;-62
2023/01/07 09:01:51;;;;;;;33.13;10.90;;;;;;;;;;5067023;28;20104;-62
2023/01/07 09:04:17;;;;;;;32.20;10.43;;;;;;;;;;5052720;28;20025;-66
2023/01/07 09:06:43;;;;;;;27.25;10.20;;;;;;;;;;5052927;28;20067;-61
2023/01/07 09:09:10;;;;;;;35.20;11.00;;;;;;;;;;5054112;28;20017;-61
2023/01/07 09:11:36;;;;;;;27.17;9.45;;;;;;;;;;5056800;28;20021;-62
2023/01/07 09:14:02;;;;;;;37.08;9.80;;;;;;;;;;5047988;28;20522;-65
2023/01/07 09:16:28;;;;;;;26.45;9.95;;;;;;;;;;5052780;28;20021;-62
2023/01/07 09:18:54;;;;;;;23.55;9.70;;;;;;;;;;5052290;28;20553;-61
2023/01/07 09:21:20;;;;;;;32.33;10.40;;;;;;;;;;5052117;28;20029;-60
2023/01/07 09:23:46;;;;;;;23.67;9.43;;;;;;;;;;5051946;28;20033;-60
2023/01/07 09:26:12;;;;;;;23.23;8.98;;;;;;;;;;5052366;28;20025;-62
2023/01/07 09:28:38;;;;;;;25.90;10.35;;;;;;;;;;5052075;28;20062;-59
2023/01/07 09:31:05;;;;;;;28.65;8.85;;;;;;;;;;5052467;28;20092;-61
2023/01/07 09:33:31;;;;;;;34.83;9.17;;;;;;;;;;5052871;28;20024;-62
2023/01/07 09:35:57;;;;;;;39.47;9.65;;;;;;;;;;5052444;28;20056;-60
2023/01/07 09:38:23;;;;;;;21.33;8.00;;;;;;;;;;5052111;28;20071;-63
2023/01/07 09:40:49;;;;;;;25.38;8.05;;;;;;;;;;5052517;28;20416;-61
2023/01/07 09:43:18;;;;;;;30.55;8.63;;;;;;;;;;5052164;28;20017;-60
2023/01/07 09:45:44;;;;;;;27.88;8.60;;;;;;;;;;5052173;28;20058;-63
2023/01/07 09:48:23;;;;;;;22.20;7.95;;;;;;;;;;5051915;28;20103;-63
2023/01/07 09:50:55;;;;;;;25.40;8.52;;;;;;;;;;5052083;28;20040;-60
2023/01/07 09:53:24;;;;;;;23.75;7.95;;;;;;;;;;5052075;28;20017;-62
2023/01/07 09:55:51;;;;;;;28.30;8.90;;;;;;;;;;5052092;28;20503;-61
2023/01/07 09:58:18;;;;;;;27.50;10.95;;;;;;;;;;5050369;28;20058;-61
2023/01/07 10:00:57;;;;;;;21.98;12.30;;;;;;;;;;5052048;28;20108;-63
2023/01/07 10:03:31;;;;;;;29.67;13.48;;;;;;;;;;5051824;28;20029;-61
2023/01/07 10:06:07;;;;;;;32.53;21.35;;;;;;;;;;5052020;28;20491;-62
2023/01/07 10:08:33;;;;;;;37.10;15.25;;;;;;;;;;5052184;28;20032;-62
2023/01/07 10:11:02;;;;;;;35.30;14.82;;;;;;;;;;5051857;28;20025;-62
2023/01/07 10:13:28;;;;;;;39.58;16.35;;;;;;;;;;5051738;28;20116;-61
2023/01/07 10:16:00;;;;;;;40.80;14.65;;;;;;;;;;5051844;28;20112;-60
2023/01/07 10:18:30;;;;;;;29.02;13.65;;;;;;;;;;5051520;28;20024;-61
2023/01/07 10:21:11;;;;;;;44.15;11.55;;;;;;;;;;5051768;28;20438;-61
2023/01/07 10:23:43;;;;;;;28.88;10.48;;;;;;;;;;5051471;28;20021;-60
2023/01/07 10:26:23;;;;;;;25.23;10.43;;;;;;;;;;5050348;28;20052;-60
2023/01/07 10:29:09;;;;;;;31.70;9.68;;;;;;;;;;5051712;28;20028;-61
2023/01/07 10:31:35;;;;;;;28.90;11.30;;;;;;;;;;5047565;28;20033;-61
2023/01/07 10:34:02;;;;;;;30.67;10.45;;;;;;;;;;5050167;28;20025;-60
2023/01/07 10:36:30;;;;;;;31.20;9.38;;;;;;;;;;5040603;28;20506;-61
2023/01/07 10:39:11;;;;;;;27.80;9.45;;;;;;;;;;5043088;28;20021;-61
2023/01/07 10:42:04;;;;;;;22.27;8.18;;;;;;;;;;5039950;28;20021;-60
2023/01/07 10:44:33;;;;;;;24.00;9.82;;;;;;;;;;5039898;28;20115;-60
2023/01/07 10:47:08;;;;;;;41.75;14.25;;;;;;;;;;5037352;28;20691;-60
2023/01/07 10:49:52;;;;;;;82.85;24.60;;;;;;;;;;5037247;28;20029;-63
2023/01/07 10:52:38;;;;;;;231.57;80.72;;;;;;;;;;5033215;28;20021;-61
2023/01/07 10:55:13;;;;;;;45.80;14.93;;;;;;;;;;5037365;28;20041;-63
2023/01/07 10:57:39;;;;;;;52.95;20.50;;;;;;;;;;5034920;28;20035;-63
2023/01/07 11:00:07;;;;;;;38.33;16.63;;;;;;;;;;5031209;28;20440;-61
2023/01/07 11:02:33;;;;;;;44.40;16.30;;;;;;;;;;5031496;28;20029;-62
2023/01/07 11:04:59;;;;;;;46.65;15.05;;;;;;;;;;5031343;28;20132;-61
2023/01/07 11:07:42;;;;;;;46.05;16.00;;;;;;;;;;5031567;28;20017;-63
2023/01/07 11:10:13;;;;;;;37.38;13.52;;;;;;;;;;5031081;28;20033;-60
2023/01/07 11:12:41;;;;;;;35.47;13.70;;;;;;;;;;5034960;28;20109;-62
2023/01/07 11:15:19;;;;;;;37.00;13.23;;;;;;;;;;5038659;28;20566;-63
2023/01/07 11:17:53;;;;;;;42.10;13.55;;;;;;;;;;5045061;28;20108;-63
2023/01/07 11:20:38;;;;;;;33.05;13.38;;;;;;;;;;5043098;28;20026;-61
2023/01/07 11:23:18;;;;;;;35.47;11.52;;;;;;;;;;5034814;28;20466;-62
2023/01/07 11:25:44;;;;;;;24.90;10.05;;;;;;;;;;5034758;28;20061;-61
2023/01/07 11:28:17;;;;;;;30.35;10.77;;;;;;;;;;5034563;28;20021;-62
2023/01/07 11:30:43;;;;;;;20.65;9.85;;;;;;;;;;5034699;28;20018;-65
2023/01/07 11:33:17;;;;;;;32.17;9.80;;;;;;;;;;5034978;28;20075;-69
2023/01/07 11:35:51;;;;;;;34.40;10.18;;;;;;;;;;5034667;28;20033;-66
2023/01/07 11:38:31;;;;;;;32.25;9.75;;;;;;;;;;5041238;28;20017;-67
2023/01/07 11:40:58;;;;;;;36.50;9.68;;;;;;;;;;5054530;28;20027;-65
2023/01/07 11:43:25;;;;;;;33.78;9.90;;;;;;;;;;5054290;28;20029;-65
2023/01/07 11:45:52;;;;;;;35.77;9.37;;;;;;;;;;5054206;28;20035;-63
2023/01/07 11:48:27;;;;;;;43.47;9.68;;;;;;;;;;5054153;28;20263;-62
2023/01/07 11:50:53;;;;;;;36.65;9.38;;;;;;;;;;5054352;28;20053;-64
2023/01/07 11:53:19;;;;;;;29.90;8.48;;;;;;;;;;5054211;28;20063;-63
2023/01/07 11:55:54;;;;;;;30.55;9.40;;;;;;;;;;5054156;28;20048;-64
2023/01/07 11:58:21;;;;;;;34.85;9.10;;;;;;;;;;5054067;28;20029;-63
2023/01/07 12:01:01;;;;;;;25.17;8.43;;;;;;;;;;5054184;28;20048;-63
2023/01/07 12:03:27;;;;;;;24.77;7.97;;;;;;;;;;5054142;28;20098;-63
2023/01/07 12:05:56;;;;;;;27.20;8.30;;;;;;;;;;5054068;28;20368;-65
2023/01/07 12:08:22;;;;;;;31.05;8.50;;;;;;;;;;5053688;28;20025;-64
2023/01/07 12:11:00;;;;;;;23.38;7.60;;;;;;;;;;5054001;28;20024;-64
2023/01/07 12:13:27;;;;;;;33.85;7.57;;;;;;;;;;5053778;28;20533;-64
2023/01/07 12:16:01;;;;;;;22.23;8.13;;;;;;;;;;5053910;28;20048;-65
2023/01/07 12:18:46;;;;;;;26.10;7.95;;;;;;;;;;5053554;28;20444;-63
2023/01/07 12:21:30;;;;;;;23.70;5.75;;;;;;;;;;5053751;28;20025;-63
2023/01/07 12:23:56;;;;;;;15.90;3.85;;;;;;;;;;5053959;28;20086;-64
2023/01/07 12:26:25;;;;;;;12.82;3.28;;;;;;;;;;5053808;28;20020;-63
2023/01/07 12:29:00;;;;;;;41.53;4.13;;;;;;;;;;5053291;28;20062;-62
2023/01/07 12:31:29;;;;;;;22.67;3.80;;;;;;;;;;5053348;28;20417;-67
2023/01/07 12:33:55;;;;;;;19.35;3.90;;;;;;;;;;5053548;28;20372;-64
2023/01/07 12:36:40;;;;;;;30.10;4.95;;;;;;;;;;5053630;28;20021;-61
2023/01/07 12:39:11;;;;;;;25.35;4.15;;;;;;;;;;5053128;28;20021;-62
2023/01/07 12:41:40;;;;;;;26.45;4.90;;;;;;;;;;5053372;28;20025;-62
2023/01/07 12:44:20;;;;;;;20.55;4.75;;;;;;;;;;5053290;28;20025;-62
2023/01/07 12:46:52;;;;;;;17.58;4.60;;;;;;;;;;5053281;28;20471;-65
2023/01/07 12:49:22;;;;;;;25.48;5.57;;;;;;;;;;5052961;28;20135;-62
2023/01/07 12:51:51;;;;;;;25.33;4.88;;;;;;;;;;5053345;28;20052;-61
2023/01/07 12:54:19;;;;;;;18.23;4.63;;;;;;;;;;5052929;28;20442;-62
2023/01/07 12:56:53;;;;;;;33.03;4.38;;;;;;;;;;5052461;28;20438;-63
2023/01/07 12:59:25;;;;;;;11.55;4.95;;;;;;;;;;5052817;28;20049;-63
2023/01/07 13:02:05;;;;;;;18.95;4.07;;;;;;;;;;5053015;28;20059;-61
2023/01/07 13:04:34;;;;;;;28.30;4.07;;;;;;;;;;5052753;28;20116;-62
2023/01/07 13:07:05;;;;;;;15.35;3.58;;;;;;;;;;5052477;28;20021;-62
2023/01/07 13:09:34;;;;;;;17.17;4.32;;;;;;;;;;5052677;28;20024;-62
2023/01/07 13:14:56;;;;;;;14.68;3.47;;;;;;;;;;5053012;28;20113;-61
2023/01/07 13:17:26;;;;;;;12.25;2.95;;;;;;;;;;5052747;28;20017;-61
2023/01/07 13:19:52;;;;;;;14.18;2.80;;;;;;;;;;5052462;28;20099;-62
2023/01/07 13:22:29;;;;;;;10.88;2.83;;;;;;;;;;5051315;28;20083;-62
2023/01/07 13:25:10;;;;;;;12.77;4.22;;;;;;;;;;5052378;28;20082;-62
2023/01/07 13:27:47;;;;;;;8.27;2.97;;;;;;;;;;5052535;28;20525;-63
2023/01/07 13:30:17;;;;;;;8.57;3.20;;;;;;;;;;5052322;28;20071;-61
2023/01/07 13:32:46;;;;;;;7.53;2.95;;;;;;;;;;5052377;28;20506;-61
2023/01/07 13:35:31;;;;;;;5.15;2.40;;;;;;;;;;5051902;28;20103;-60
2023/01/07 13:37:57;;;;;;;11.77;3.38;;;;;;;;;;5052342;28;20033;-63
2023/01/07 13:40:38;;;;;;;11.45;3.00;;;;;;;;;;5052002;28;20070;-63
2023/01/07 13:43:14;;;;;;;11.57;2.60;;;;;;;;;;5052180;28;20033;-63
2023/01/07 13:45:41;;;;;;;8.10;3.37;;;;;;;;;;5050893;28;20115;-62
2023/01/07 13:48:16;;;;;;;9.38;3.85;;;;;;;;;;5052091;28;20252;-63
2023/01/07 13:50:43;;;;;;;9.15;3.10;;;;;;;;;;5052289;28;20091;-62
2023/01/07 13:53:15;;;;;;;5.07;2.85;;;;;;;;;;5052208;28;20025;-63
2023/01/07 13:55:42;;;;;;;3.67;2.42;;;;;;;;;;5052124;28;20029;-63
2023/01/07 13:58:27;;;;;;;5.77;3.13;;;;;;;;;;5052227;28;20032;-62
2023/01/07 14:01:08;;;;;;;6.65;2.45;;;;;;;;;;5052017;28;20598;-62
2023/01/07 14:03:43;;;;;;;9.77;2.50;;;;;;;;;;5052083;28;20035;-63
2023/01/07 14:06:18;;;;;;;6.63;2.88;;;;;;;;;;5052646;28;20037;-62
2023/01/07 14:08:54;;;;;;;4.00;2.70;;;;;;;;;;5050595;28;20024;-63
2023/01/07 14:11:41;;;;;;;5.25;2.47;;;;;;;;;;5052101;28;20451;-63
2023/01/07 14:14:25;;;;;;;4.38;2.40;;;;;;;;;;5040857;28;20120;-63
2023/01/07 14:17:00;;;;;;;7.15;2.80;;;;;;;;;;5051768;28;20100;-63
2023/01/07 14:19:45;;;;;;;6.00;2.53;;;;;;;;;;5051489;28;20147;-62
2023/01/07 14:22:43;;;;;;;6.88;2.80;;;;;;;;;;5051508;28;20017;-63
2023/01/07 14:25:18;;;;;;;3.95;2.20;;;;;;;;;;5039033;28;20547;-61
2023/01/07 14:28:03;;;;;;;4.70;2.40;;;;;;;;;;5040652;28;20057;-63
2023/01/07 14:30:35;;;;;;;15.75;3.35;;;;;;;;;;5040500;28;20025;-65
2023/01/07 14:33:03;;;;;;;21.15;3.58;;;;;;;;;;5051589;28;20029;-62
2023/01/07 14:35:29;;;;;;;;;;;;;;;;;;5036814;28;20036;-63
2023/01/07 14:37:55;;;;;;;20.08;3.80;;;;;;;;;;5031315;28;19905;-65
2023/01/07 14:40:31;;;;;;;41.22;10.13;;;;;;;;;;5031146;28;20052;-64
2023/01/07 14:42:58;;;;;;;37.90;15.73;;;;;;;;;;5037727;28;20021;-64
2023/01/07 14:45:36;;;;;;;1168.65;604.13;;;;;;;;;;5051493;28;20035;-65
2023/01/07 14:48:08;;;;;;;323.17;158.63;;;;;;;;;;5055202;28;20021;-64
2023/01/07 14:50:53;;;;;;;230.70;110.47;;;;;;;;;;5055453;28;20364;-64
2023/01/07 14:53:38;;;;;;;181.43;83.05;;;;;;;;;;5055502;28;20021;-64
2023/01/07 14:56:16;;;;;;;144.13;69.65;;;;;;;;;;5055493;28;20571;-65
2023/01/07 14:58:51;;;;;;;149.85;62.20;;;;;;;;;;5055333;28;20101;-62
2023/01/07 15:01:26;;;;;;;129.98;63.00;;;;;;;;;;5038521;28;20021;-61
2023/01/07 15:04:07;;;;;;;122.40;60.20;;;;;;;;;;5035255;28;20029;-68
2023/01/07 15:06:34;;;;;;;128.45;55.13;;;;;;;;;;5035219;28;20029;-67
2023/01/07 15:17:20;;;;;;;118.38;57.95;;;;;;;;;;5035214;28;20039;-66
2023/01/07 15:19:46;;;;;;;131.13;58.17;;;;;;;;;;5034814;28;20022;-65
2023/01/07 15:22:22;;;;;;;113.15;54.67;;;;;;;;;;5034973;28;20030;-64
2023/01/07 15:25:06;;;;;;;108.50;51.50;;;;;;;;;;5034906;28;20037;-64
2023/01/07 15:27:51;;;;;;;109.47;49.65;;;;;;;;;;5034812;28;20032;-64
2023/01/07 15:30:32;;;;;;;106.80;49.92;;;;;;;;;;5034709;28;20022;-65
2023/01/07 15:33:14;;;;;;;108.93;48.67;;;;;;;;;;5034856;28;20097;-68
2023/01/07 15:35:41;;;;;;;110.13;48.40;;;;;;;;;;5053420;28;20067;-64
2023/01/07 15:38:30;;;;;;;106.05;47.33;;;;;;;;;;5054249;28;20039;-65
2023/01/07 15:40:57;;;;;;;107.47;42.25;;;;;;;;;;5051492;28;20036;-64
2023/01/07 15:43:25;;;;;;;82.85;36.83;;;;;;;;;;5054358;28;20029;-64
2023/01/07 15:45:51;;;;;;;;;;;;;;;;;;5054593;28;20029;-64
2023/01/07 15:48:17;;;;;;;85.55;35.90;;;;;;;;;;5054077;28;20394;-65
2023/01/07 15:50:46;;;;;;;97.28;35.28;;;;;;;;;;5054477;28;20036;-62
2023/01/07 15:53:11;;;;;;;98.55;35.28;;;;;;;;;;5054043;28;20636;-65
2023/01/07 15:56:10;;;;;;;104.70;31.98;;;;;;;;;;5054302;28;20052;-65
2023/01/07 15:58:44;;;;;;;93.45;34.65;;;;;;;;;;5031170;28;20041;-64
2023/01/07 16:01:18;;;;;;;84.32;32.47;;;;;;;;;;5031911;28;20514;-63
2023/01/07 16:03:45;;;;;;;98.35;34.88;;;;;;;;;;5015210;28;20034;-64
2023/01/07 16:06:26;;;;;;;95.93;30.80;;;;;;;;;;5031986;28;20033;-68
2023/01/07 16:08:52;;;;;;;78.68;29.85;;;;;;;;;;5031424;28;20029;-62
2023/01/07 16:11:25;;;;;;;93.00;30.52;;;;;;;;;;5014843;28;20036;-68
2023/01/07 16:14:01;;;;;;;75.78;30.38;;;;;;;;;;5031636;28;20026;-64
2023/01/07 16:16:28;;;;;;;91.18;29.10;;;;;;;;;;5031337;28;20124;-66
2023/01/07 16:18:58;;;;;;;86.72;27.88;;;;;;;;;;5031354;28;20136;-64
2023/01/07 16:21:29;;;;;;;79.55;26.67;;;;;;;;;;5031192;28;20507;-66
2023/01/07 16:23:55;;;;;;;70.90;25.80;;;;;;;;;;5031282;28;20449;-66
2023/01/07 16:26:23;;;;;;;102.18;26.95;;;;;;;;;;5031214;28;20076;-64
2023/01/07 16:28:54;;;;;;;71.65;26.48;;;;;;;;;;5030968;28;20486;-64
2023/01/07 16:31:22;;;;;;;80.57;27.25;;;;;;;;;;5031492;28;20029;-66
2023/01/07 16:33:48;;;;;;;;;;;;;;;;;;5036005;28;20033;-65
2023/01/07 16:36:15;;;;;;;60.83;22.73;;;;;;;;;;5033584;28;19909;-65
2023/01/07 16:38:42;;;;;;;80.22;24.55;;;;;;;;;;5033261;28;20029;-67
2023/01/07 16:41:15;;;;;;;60.17;24.42;;;;;;;;;;5033537;28;20026;-66
2023/01/07 16:43:43;;;;;;;77.07;23.15;;;;;;;;;;5033501;28;20034;-66
2023/01/07 16:46:34;;;;;;;66.45;24.48;;;;;;;;;;5033399;28;20029;-64
2023/01/07 16:49:19;;;;;;;59.97;21.95;;;;;;;;;;5033028;28;20539;-70
2023/01/07 16:51:53;;;;;;;59.63;23.67;;;;;;;;;;5033310;28;20476;-69
2023/01/07 16:54:26;;;;;;;53.50;22.77;;;;;;;;;;5033259;28;20018;-66
2023/01/07 16:57:10;;;;;;;78.60;23.17;;;;;;;;;;5033310;28;20033;-75
2023/01/07 16:59:37;;;;;;;72.97;21.92;;;;;;;;;;5032892;28;20033;-63
2023/01/07 17:02:22;;;;;;;72.18;24.40;;;;;;;;;;5033018;28;20029;-63
2023/01/07 17:04:48;;;;;;;84.35;21.35;;;;;;;;;;5033006;28;20387;-63
2023/01/07 17:07:27;;;;;;;62.63;19.80;;;;;;;;;;5033113;28;20108;-65
2023/01/07 17:09:54;;;;;;;84.88;21.75;;;;;;;;;;5031843;28;20044;-62
2023/01/07 17:12:28;;;;;;;68.60;20.70;;;;;;;;;;5032952;28;20431;-63
2023/01/07 17:14:54;;;;;;;61.00;18.65;;;;;;;;;;5032781;28;20029;-64
2023/01/07 17:17:26;;;;;;;58.90;20.60;;;;;;;;;;5032904;28;20059;-67
2023/01/07 17:19:54;;;;;;;52.03;17.90;;;;;;;;;;5032285;28;20022;-63
2023/01/07 17:22:31;;;;;;;30.67;14.30;;;;;;;;;;5032585;28;20022;-64
2023/01/07 17:25:17;;;;;;;32.78;12.40;;;;;;;;;;5032448;28;20037;-62
2023/01/07 17:27:46;;;;;;;21.70;11.57;;;;;;;;;;5028694;28;20057;-64
2023/01/07 17:30:14;;;;;;;35.55;13.80;;;;;;;;;;5032322;28;20475;-64
2023/01/07 17:32:41;;;;;;;38.78;13.55;;;;;;;;;;5032378;28;20092;-63
2023/01/07 17:35:14;;;;;;;40.63;12.40;;;;;;;;;;5045309;28;20516;-64
2023/01/07 17:37:40;;;;;;;65.07;22.58;;;;;;;;;;5052250;28;20094;-65
2023/01/07 17:40:07;;;;;;;45.22;15.93;;;;;;;;;;5052093;28;20032;-65
2023/01/07 17:45:19;;;;;;;64.82;22.17;;;;;;;;;;5052027;28;20095;-62
2023/01/07 17:47:46;;;;;;;83.72;29.70;;;;;;;;;;5050914;28;20395;-64
2023/01/07 17:50:13;;;;;;;98.22;33.38;;;;;;;;;;5051936;28;20029;-66
2023/01/07 17:52:40;;;;;;;128.23;43.73;;;;;;;;;;5052275;28;20021;-64
2023/01/07 17:55:06;;;;;;;148.23;48.72;;;;;;;;;;5052142;28;20029;-72
2023/01/07 17:57:32;;;;;;;109.38;38.53;;;;;;;;;;5050813;28;20033;-61
2023/01/07 17:59:58;;;;;;;91.18;32.83;;;;;;;;;;5051642;28;20518;-66
2023/01/07 18:02:28;;;;;;;127.68;41.63;;;;;;;;;;5051979;28;20029;-65
2023/01/07 18:04:54;;;;;;;263.10;81.15;;;;;;;;;;5051983;28;20032;-63
2023/01/07 18:07:20;;;;;;;191.55;59.72;;;;;;;;;;5051964;28;20052;-67
2023/01/07 18:09:46;;;;;;;152.27;49.58;;;;;;;;;;5051665;28;20099;-64
2023/01/07 18:12:30;;;;;;;205.32;74.60;;;;;;;;;;5051818;28;20487;-64
2023/01/07 18:14:58;;;;;;;139.70;46.33;;;;;;;;;;5051886;28;20048;-63
2023/01/07 18:17:24;;;;;;;135.07;40.53;;;;;;;;;;5051906;28;20036;-63
2023/01/07 18:19:50;;;;;;;114.32;40.53;;;;;;;;;;5051363;28;20071;-63
2023/01/07 18:22:16;;;;;;;107.05;40.97;;;;;;;;;;5051669;28;20044;-64
2023/01/07 18:24:42;;;;;;;109.03;39.47;;;;;;;;;;5052014;28;20028;-61
2023/01/07 18:27:13;;;;;;;99.38;39.42;;;;;;;;;;5051690;28;20086;-63
2023/01/07 18:29:39;;;;;;;118.28;39.10;;;;;;;;;;5050069;28;20111;-62
2023/01/07 18:32:05;;;;;;;102.45;37.38;;;;;;;;;;5051625;28;20108;-62
2023/01/07 18:34:30;;;;;;;86.95;37.55;;;;;;;;;;5042186;28;20079;-60
2023/01/07 18:36:57;;;;;;;99.13;36.58;;;;;;;;;;5031612;28;20026;-62
2023/01/07 18:39:23;;;;;;;99.68;36.47;;;;;;;;;;5031322;28;20029;-60
2023/01/07 18:41:49;;;;;;;92.22;37.70;;;;;;;;;;5031643;28;20427;-60
2023/01/07 18:44:16;;;;;;;98.38;36.25;;;;;;;;;;5031526;28;20026;-60
2023/01/07 18:46:42;;;;;;;101.10;34.30;;;;;;;;;;5031720;28;20388;-59
2023/01/07 18:49:09;;;;;;;33.33;13.23;;;;;;;;;;5031144;28;20028;-61
2023/01/07 18:51:35;;;;;;;23.17;10.30;;;;;;;;;;5031375;28;20018;-61
2023/01/07 18:54:01;;;;;;;13.88;9.00;;;;;;;;;;5031375;28;20396;-60
2023/01/07 18:56:27;;;;;;;17.42;8.70;;;;;;;;;;5031510;28;20021;-61
2023/01/07 18:58:53;;;;;;;21.75;8.75;;;;;;;;;;5031276;28;20045;-61
2023/01/07 19:01:20;;;;;;;18.63;8.45;;;;;;;;;;5031821;28;20026;-60
2023/01/07 19:03:46;;;;;;;25.95;10.00;;;;;;;;;;5031461;28;20017;-60
2023/01/07 19:06:12;;;;;;;24.02;9.75;;;;;;;;;;5031316;28;20025;-60
2023/01/07 19:08:38;;;;;;;18.48;8.68;;;;;;;;;;5029816;28;20472;-62
2023/01/07 19:11:05;;;;;;;20.23;9.90;;;;;;;;;;5031357;28;20021;-61
2023/01/07 19:13:31;;;;;;;21.83;8.73;;;;;;;;;;5031434;28;20053;-60
2023/01/07 19:15:57;;;;;;;101.00;14.32;;;;;;;;;;5031296;28;20068;-58
2023/01/07 19:18:23;;;;;;;27.27;8.75;;;;;;;;;;5031084;28;20052;-60
2023/01/07 19:20:49;;;;;;;33.03;9.07;;;;;;;;;;5031023;28;20036;-61
2023/01/07 19:23:15;;;;;;;38.33;9.02;;;;;;;;;;5031171;28;20368;-60
2023/01/07 19:25:41;;;;;;;31.20;9.27;;;;;;;;;;5056521;28;20075;-61
2023/01/07 19:28:07;;;;;;;34.55;8.80;;;;;;;;;;5054604;28;20027;-59
2023/01/07 19:30:33;;;;;;;29.98;10.43;;;;;;;;;;5071155;28;20032;-62
2023/01/07 19:32:59;;;;;;;34.70;9.80;;;;;;;;;;5064674;28;20364;-60
2023/01/07 19:35:26;;;;;;;36.55;10.70;;;;;;;;;;5054709;28;20394;-59
2023/01/07 19:37:52;;;;;;;21.98;8.80;;;;;;;;;;5054663;28;20029;-61
2023/01/07 19:40:18;;;;;;;24.35;8.98;;;;;;;;;;5054572;28;20048;-61
2023/01/07 19:42:46;;;;;;;21.60;8.32;;;;;;;;;;5073376;28;20032;-66
2023/01/07 19:45:12;;;;;;;31.25;9.80;;;;;;;;;;5074161;28;20033;-66
2023/01/07 19:47:38;;;;;;;20.25;9.23;;;;;;;;;;5065202;28;20459;-61
2023/01/07 19:50:04;;;;;;;59.58;9.13;;;;;;;;;;5062064;28;20025;-60
2023/01/07 19:52:30;;;;;;;27.10;8.15;;;;;;;;;;5068795;28;20029;-62
2023/01/07 19:54:56;;;;;;;23.02;8.95;;;;;;;;;;5074517;28;20467;-62
2023/01/07 19:57:22;;;;;;;25.20;8.23;;;;;;;;;;5055033;28;20021;-63
2023/01/07 19:59:48;;;;;;;24.17;7.82;;;;;;;;;;5054062;28;20033;-60
2023/01/07 20:02:14;;;;;;;19.13;8.13;;;;;;;;;;5054176;28;20114;-60
2023/01/07 20:04:41;;;;;;;23.80;8.30;;;;;;;;;;5062924;28;20060;-60
2023/01/07 20:07:07;;;;;;;27.70;9.32;;;;;;;;;;5074234;28;20426;-61
2023/01/07 20:09:33;;;;;;;25.05;8.10;;;;;;;;;;5073910;28;20052;-61
2023/01/07 20:11:59;;;;;;;16.17;7.05;;;;;;;;;;5072734;28;20029;-60
2023/01/07 20:14:25;;;;;;;20.98;8.27;;;;;;;;;;5073989;28;20029;-61
2023/01/07 20:16:51;;;;;;;20.95;7.63;;;;;;;;;;5074012;28;20458;-60
2023/01/07 20:19:17;;;;;;;24.55;7.75;;;;;;;;;;5073464;28;20029;-62
2023/01/07 20:21:43;;;;;;;20.30;8.05;;;;;;;;;;5064919;28;20032;-60
2023/01/07 20:24:12;;;;;;;18.17;7.00;;;;;;;;;;5053661;28;20084;-60
2023/01/07 20:26:38;;;;;;;25.65;8.32;;;;;;;;;;5053747;28;20459;-61
2023/01/07 20:29:04;;;;;;;25.25;7.60;;;;;;;;;;5053433;28;20029;-61
2023/01/07 20:31:30;;;;;;;18.85;7.78;;;;;;;;;;5053683;28;20025;-61
2023/01/07 20:33:57;;;;;;;22.60;9.45;;;;;;;;;;5053412;28;20096;-60
2023/01/07 20:36:24;;;;;;;15.48;7.68;;;;;;;;;;5053567;28;20021;-60
2023/01/07 20:38:50;;;;;;;;;;;;;;;;;;5053727;28;20468;-60
2023/01/07 20:41:17;;;;;;;18.02;8.68;;;;;;;;;;5053631;28;19905;-61
2023/01/07 20:43:43;;;;;;;16.95;7.60;;;;;;;;;;5053394;28;20509;-63
2023/01/07 20:46:10;;;;;;;24.63;8.10;;;;;;;;;;5053254;28;20033;-60
2023/01/07 20:48:36;;;;;;;20.73;7.60;;;;;;;;;;5052945;28;20028;-60
2023/01/07 20:51:06;;;;;;;24.00;7.00;;;;;;;;;;5053372;28;20463;-62
2023/01/07 20:53:32;;;;;;;16.50;7.60;;;;;;;;;;5053197;28;20029;-63
2023/01/07 20:56:00;;;;;;;12.63;7.25;;;;;;;;;;5062939;28;20070;-63
2023/01/07 20:58:26;;;;;;;22.40;7.97;;;;;;;;;;5072888;28;20482;-60
2023/01/07 21:00:52;;;;;;;16.17;7.68;;;;;;;;;;5072998;28;20035;-60
2023/01/07 21:03:18;;;;;;;20.35;7.93;;;;;;;;;;5073083;28;20025;-60
2023/01/07 21:05:45;;;;;;;17.02;7.70;;;;;;;;;;5073109;28;20072;-61
2023/01/07 21:08:11;;;;;;;26.35;8.45;;;;;;;;;;5072604;28;20017;-59
2023/01/07 21:10:37;;;;;;;20.10;8.60;;;;;;;;;;5073214;28;20443;-60
2023/01/07 21:13:03;;;;;;;18.83;7.82;;;;;;;;;;5072709;28;20056;-60
2023/01/07 21:15:30;;;;;;;13.73;6.65;;;;;;;;;;5072731;28;20445;-61
2023/01/07 21:17:56;;;;;;;20.70;8.27;;;;;;;;;;5072913;28;20055;-59